Observations for QUIMPER PLUGUFF, France (LFRQ)

LFRQ 202230Z AUTO 19006KT 9999 OVC014 12/11 Q1019 TEMPO OVC006  
LFRQ 202200Z AUTO 19006KT 8000 FEW004 OVC014 12/11 Q1019 TEMPO OVC006   
LFRQ 202130Z AUTO 18005KT 6000 FEW006 OVC012 11/11 Q1019 TEMPO OVC006   
LFRQ 202100Z AUTO 18005KT 8000 FEW005 OVC010 12/11 Q1019 NOSIG  
LFRQ 202030Z AUTO 19005KT 9000 OVC008 12/11 Q1019 NOSIG 
LFRQ 202000Z AUTO 18006KT 9999 OVC006 12/11 Q1019 NOSIG 
LFRQ 201930Z AUTO 18008KT 150V210 9999 OVC009 12/11 Q1019 NOSIG 
LFRQ 201900Z AUTO 18007KT 150V220 9999 OVC010 11/11 Q1020 NOSIG 
LFRQ 201830Z AUTO 18004KT 9000 BKN010 OVC015 11/10 Q1020 NOSIG  
LFRQ 201800Z AUTO 20005KT 9999 OVC013 11/10 Q1020 BECMG OVC015  
LFRQ 201730Z AUTO 18007KT 9999 BKN012 11/10 Q1020 BECMG OVC015  
LFRQ 201700Z AUTO 18005KT 9999 BKN015 OVC130 12/10 Q1020 NOSIG  
LFRQ 201630Z AUTO 19006KT 9999 OVC015 12/10 Q1020 NOSIG 
LFRQ 201600Z AUTO 19005KT 160V220 9999 OVC015 13/10 Q1020 NOSIG 
LFRQ 201530Z AUTO 19006KT 160V220 9999 OVC015 13/10 Q1020 NOSIG 
LFRQ 201500Z AUTO 19008KT 9999 BKN016 13/10 Q1021 NOSIG 
LFRQ 201430Z AUTO 20008KT 9999 BKN016 13/10 Q1021 NOSIG 
LFRQ 201400Z AUTO 20009KT 170V230 9999 BKN017 13/10 Q1021 NOSIG 
LFRQ 201330Z AUTO 20009KT 9999 BKN017 13/10 Q1021 NOSIG 
LFRQ 201300Z AUTO 21010KT 9999 BKN017 13/10 Q1022 NOSIG 
LFRQ 201230Z AUTO 20010KT 170V230 9999 BKN016 13/10 Q1022 NOSIG 
LFRQ 201200Z AUTO 21009KT 9999 BKN015 13/10 Q1022 NOSIG 
LFRQ 201130Z AUTO 20008KT 9999 BKN015 13/10 Q1022 NOSIG 
LFRQ 201100Z AUTO 20006KT 9999 OVC014 12/10 Q1023 BECMG OVC016  
LFRQ 201030Z AUTO 19006KT 160V220 9999 OVC014 12/10 Q1023 BECMG OVC016  
LFRQ 201000Z AUTO 20006KT 9999 OVC014 11/11 Q1023 BECMG OVC016  
LFRQ 200930Z AUTO 20006KT 9999 BKN015 11/10 Q1023 NOSIG 
LFRQ 200900Z AUTO 21007KT 9999 BKN016 10/09 Q1023 NOSIG 
LFRQ 200830Z AUTO 21006KT 9999 BKN017 09/09 Q1023 NOSIG 
LFRQ 200800Z AUTO 21005KT 9999 BKN017 09/08 Q1023 TEMPO 2000 BR 
LFRQ 200730Z AUTO 20005KT 9999 -RA OVC016 09/08 Q1023 TEMPO 2000 BR 
LFRQ 200700Z AUTO 20004KT 9000 -RA OVC016 08/08 Q1023 TEMPO BKN002 BECMG 2000 BR
LFRQ 200630Z AUTO 20004KT 8000 OVC015 08/07 Q1023 TEMPO BKN002 BECMG 2000 BR
LFRQ 200600Z AUTO 21002KT 3400 BR BKN016 07/06 Q1023 TEMPO 0600 FG BKN002   
LFRQ 200530Z AUTO 00000KT 4400 BR OVC016 07/07 Q1023 TEMPO 0600 FG BKN002   
LFRQ 200500Z AUTO 00000KT 3400 1300 R28/P2000 BR OVC015 06/05 Q1023 
LFRQ 200430Z AUTO 25001KT 2500 BR OVC015 04/04 Q1023
LFRQ 200400Z AUTO 00000KT 2000 BR BKN015 03/03 Q1023
LFRQ 200330Z AUTO 20002KT 2000 BR FEW002 BKN140 03/03 Q1023 
LFRQ 200300Z AUTO 22004KT 2200 1000 R28/P2000 BR FEW015 SCT130 04/04 Q1023  
LFRQ 200230Z AUTO 20003KT 2300 BR OVC016 04/03 Q1024
LFRQ 200200Z AUTO 00000KT 0700 0650 R28/0900N FG FEW001 OVC015 03/03 Q1024  
LFRQ 200130Z AUTO 00000KT 0300 R28/0350N FG VV/// 03/02 Q1024   
LFRQ 200100Z AUTO 00000KT 0500 0450 R28/0800U FG VV/// 03/03 Q1024  
LFRQ 200030Z AUTO 07001KT 0500 0450 R28/0800U FG VV/// 03/03 Q1025  
LFRQ 200000Z AUTO VRB02KT 0450 0400 R28/0500N FG VV/// 04/03 Q1025  
LFRQ 192330Z AUTO 00000KT 0450 0400 R28/0450D FG VV/// 04/04 Q1025  
LFRQ 192300Z AUTO 00000KT 0400 R28/0700U FG VV/// 04/04 Q1025 BECMG 0300 FG 
LFRQ 192230Z AUTO 03002KT 0250 R28/0300N FG VV/// 05/04 Q1025 TEMPO 1500 BKN005 
LFRQ 192200Z AUTO VRB02KT 0300 0250 R28/0350N FG VV/// 05/04 Q1025 BECMG 3000 BR NSC